sensor_id;sensor_type;location;lat;lon;timestamp;noise_LAeq;noise_LA_min;noise_LA_max;noise_LA01;noise_LA95
74292;Laerm;62687;55.738;37.516;2023-04-06T00:01:38;67.28;54.27;75.60;;
74292;Laerm;62687;55.738;37.516;2023-04-06T00:04:23;66.54;55.06;75.34;;
74292;Laerm;62687;55.738;37.516;2023-04-06T00:07:07;66.84;54.88;77.32;;
74292;Laerm;62687;55.738;37.516;2023-04-06T00:09:52;66.75;58.10;74.09;;
74292;Laerm;62687;55.738;37.516;2023-04-06T00:12:36;64.83;52.77;71.99;;
74292;Laerm;62687;55.738;37.516;2023-04-06T00:15:20;65.02;54.97;72.47;;
74292;Laerm;62687;55.738;37.516;2023-04-06T00:18:04;66.75;54.51;76.60;;
74292;Laerm;62687;55.738;37.516;2023-04-06T00:20:49;66.16;53.36;73.49;;
74292;Laerm;62687;55.738;37.516;2023-04-06T00:23:34;67.67;58.99;75.65;;
74292;Laerm;62687;55.738;37.516;2023-04-06T00:26:19;67.12;55.18;77.10;;
74292;Laerm;62687;55.738;37.516;2023-04-06T00:29:04;65.90;55.61;73.44;;
74292;Laerm;62687;55.738;37.516;2023-04-06T00:31:48;65.94;55.79;74.82;;
74292;Laerm;62687;55.738;37.516;2023-04-06T00:34:32;67.94;52.66;89.05;;
74292;Laerm;62687;55.738;37.516;2023-04-06T00:37:16;65.95;57.14;73.27;;
74292;Laerm;62687;55.738;37.516;2023-04-06T00:40:00;65.78;53.31;73.65;;
74292;Laerm;62687;55.738;37.516;2023-04-06T00:42:45;65.76;51.90;72.79;;
74292;Laerm;62687;55.738;37.516;2023-04-06T00:45:29;65.97;52.79;78.77;;
74292;Laerm;62687;55.738;37.516;2023-04-06T00:48:13;64.94;53.69;73.50;;
74292;Laerm;62687;55.738;37.516;2023-04-06T00:50:57;66.81;54.75;74.23;;
74292;Laerm;62687;55.738;37.516;2023-04-06T00:53:42;66.20;56.31;72.59;;
74292;Laerm;62687;55.738;37.516;2023-04-06T00:56:27;64.78;54.09;72.43;;
74292;Laerm;62687;55.738;37.516;2023-04-06T00:59:12;66.66;56.73;75.00;;
74292;Laerm;62687;55.738;37.516;2023-04-06T01:01:56;65.34;54.70;72.12;;
74292;Laerm;62687;55.738;37.516;2023-04-06T01:04:40;65.09;55.66;70.95;;
74292;Laerm;62687;55.738;37.516;2023-04-06T01:07:24;66.00;54.44;76.10;;
74292;Laerm;62687;55.738;37.516;2023-04-06T01:10:09;67.18;57.25;81.03;;
74292;Laerm;62687;55.738;37.516;2023-04-06T01:12:53;66.85;59.01;76.59;;
74292;Laerm;62687;55.738;37.516;2023-04-06T01:15:37;66.29;53.41;75.71;;
74292;Laerm;62687;55.738;37.516;2023-04-06T01:18:26;64.60;51.12;71.74;;
74292;Laerm;62687;55.738;37.516;2023-04-06T01:21:11;66.92;55.11;86.90;;
74292;Laerm;62687;55.738;37.516;2023-04-06T01:23:59;66.91;55.35;77.79;;
74292;Laerm;62687;55.738;37.516;2023-04-06T01:26:44;67.33;54.55;80.08;;
74292;Laerm;62687;55.738;37.516;2023-04-06T01:29:29;67.83;55.53;84.11;;
74292;Laerm;62687;55.738;37.516;2023-04-06T01:32:12;65.86;53.09;71.86;;
74292;Laerm;62687;55.738;37.516;2023-04-06T01:34:57;66.45;56.48;72.95;;
74292;Laerm;62687;55.738;37.516;2023-04-06T01:37:41;69.74;58.01;88.36;;
74292;Laerm;62687;55.738;37.516;2023-04-06T01:40:25;66.03;55.37;71.92;;
74292;Laerm;62687;55.738;37.516;2023-04-06T01:43:09;66.79;57.14;73.03;;
74292;Laerm;62687;55.738;37.516;2023-04-06T01:45:53;65.95;58.70;72.94;;
74292;Laerm;62687;55.738;37.516;2023-04-06T01:48:38;67.47;55.26;75.74;;
74292;Laerm;62687;55.738;37.516;2023-04-06T01:51:22;67.41;57.90;76.94;;
74292;Laerm;62687;55.738;37.516;2023-04-06T01:54:06;67.50;60.19;75.30;;
74292;Laerm;62687;55.738;37.516;2023-04-06T01:56:50;66.09;57.06;76.28;;
74292;Laerm;62687;55.738;37.516;2023-04-06T01:59:36;65.37;54.84;72.32;;
74292;Laerm;62687;55.738;37.516;2023-04-06T02:02:20;66.92;57.78;75.23;;
74292;Laerm;62687;55.738;37.516;2023-04-06T02:05:05;67.46;60.23;84.72;;
74292;Laerm;62687;55.738;37.516;2023-04-06T02:07:49;67.40;60.56;84.48;;
74292;Laerm;62687;55.738;37.516;2023-04-06T02:10:34;67.30;58.83;74.64;;
74292;Laerm;62687;55.738;37.516;2023-04-06T02:13:18;68.09;59.27;78.95;;
74292;Laerm;62687;55.738;37.516;2023-04-06T02:16:02;66.76;57.63;75.46;;
74292;Laerm;62687;55.738;37.516;2023-04-06T02:18:47;67.28;60.45;80.33;;
74292;Laerm;62687;55.738;37.516;2023-04-06T02:21:31;68.32;62.18;84.39;;
74292;Laerm;62687;55.738;37.516;2023-04-06T02:24:15;67.72;60.49;74.51;;
74292;Laerm;62687;55.738;37.516;2023-04-06T02:27:00;67.99;58.45;74.56;;
74292;Laerm;62687;55.738;37.516;2023-04-06T02:29:44;68.98;62.02;76.49;;
74292;Laerm;62687;55.738;37.516;2023-04-06T02:32:28;69.06;59.76;76.39;;
74292;Laerm;62687;55.738;37.516;2023-04-06T02:35:13;68.51;60.97;77.12;;
74292;Laerm;62687;55.738;37.516;2023-04-06T02:37:57;68.18;58.73;74.72;;
74292;Laerm;62687;55.738;37.516;2023-04-06T02:40:41;68.70;58.97;75.35;;
74292;Laerm;62687;55.738;37.516;2023-04-06T02:43:25;69.59;63.04;76.14;;
74292;Laerm;62687;55.738;37.516;2023-04-06T02:46:09;69.73;59.42;74.86;;
74292;Laerm;62687;55.738;37.516;2023-04-06T02:48:53;70.09;58.38;81.09;;
74292;Laerm;62687;55.738;37.516;2023-04-06T02:51:38;69.62;60.82;74.35;;
74292;Laerm;62687;55.738;37.516;2023-04-06T02:54:22;70.54;64.06;77.79;;
74292;Laerm;62687;55.738;37.516;2023-04-06T02:57:06;70.69;61.95;79.85;;
74292;Laerm;62687;55.738;37.516;2023-04-06T02:59:50;69.70;63.71;74.69;;
74292;Laerm;62687;55.738;37.516;2023-04-06T03:02:34;70.28;64.56;75.86;;
74292;Laerm;62687;55.738;37.516;2023-04-06T03:05:19;70.60;62.90;82.58;;
74292;Laerm;62687;55.738;37.516;2023-04-06T03:08:03;70.47;61.63;78.83;;
74292;Laerm;62687;55.738;37.516;2023-04-06T03:10:47;69.69;62.83;75.84;;
74292;Laerm;62687;55.738;37.516;2023-04-06T03:13:32;70.99;63.88;77.27;;
74292;Laerm;62687;55.738;37.516;2023-04-06T03:16:16;71.94;63.25;76.58;;
74292;Laerm;62687;55.738;37.516;2023-04-06T03:19:00;71.55;65.06;76.47;;
74292;Laerm;62687;55.738;37.516;2023-04-06T03:21:44;71.60;64.97;77.56;;
74292;Laerm;62687;55.738;37.516;2023-04-06T03:24:28;71.26;62.19;76.53;;
74292;Laerm;62687;55.738;37.516;2023-04-06T03:27:12;72.20;66.69;79.00;;
74292;Laerm;62687;55.738;37.516;2023-04-06T03:29:57;71.72;66.40;76.27;;
74292;Laerm;62687;55.738;37.516;2023-04-06T03:32:41;72.54;67.41;79.17;;
74292;Laerm;62687;55.738;37.516;2023-04-06T03:35:25;72.44;67.44;77.44;;
74292;Laerm;62687;55.738;37.516;2023-04-06T03:38:09;72.41;68.25;77.69;;
74292;Laerm;62687;55.738;37.516;2023-04-06T03:40:53;72.70;66.98;77.14;;
74292;Laerm;62687;55.738;37.516;2023-04-06T03:43:37;73.08;68.17;78.51;;
74292;Laerm;62687;55.738;37.516;2023-04-06T03:46:21;72.89;68.04;77.86;;
74292;Laerm;62687;55.738;37.516;2023-04-06T03:49:06;72.27;66.98;77.61;;
74292;Laerm;62687;55.738;37.516;2023-04-06T03:51:34;73.33;68.14;78.27;;
74292;Laerm;62687;55.738;37.516;2023-04-06T03:54:18;73.56;68.37;83.02;;
74292;Laerm;62687;55.738;37.516;2023-04-06T03:57:03;72.50;65.90;79.33;;
74292;Laerm;62687;55.738;37.516;2023-04-06T03:59:48;72.44;67.47;77.31;;
74292;Laerm;62687;55.738;37.516;2023-04-06T04:02:32;73.37;67.04;79.30;;
74292;Laerm;62687;55.738;37.516;2023-04-06T04:05:16;72.80;67.03;77.57;;
74292;Laerm;62687;55.738;37.516;2023-04-06T04:08:00;73.18;67.56;77.53;;
74292;Laerm;62687;55.738;37.516;2023-04-06T04:10:44;72.82;67.64;78.99;;
74292;Laerm;62687;55.738;37.516;2023-04-06T04:13:28;73.05;68.61;77.37;;
74292;Laerm;62687;55.738;37.516;2023-04-06T04:16:13;73.24;68.04;77.52;;
74292;Laerm;62687;55.738;37.516;2023-04-06T04:18:57;73.16;68.57;77.39;;
74292;Laerm;62687;55.738;37.516;2023-04-06T04:21:46;73.75;69.54;78.35;;
74292;Laerm;62687;55.738;37.516;2023-04-06T04:24:30;73.96;69.09;78.07;;
74292;Laerm;62687;55.738;37.516;2023-04-06T04:27:14;74.20;69.86;78.27;;
74292;Laerm;62687;55.738;37.516;2023-04-06T04:29:58;74.08;69.07;79.08;;
74292;Laerm;62687;55.738;37.516;2023-04-06T04:32:42;73.99;69.50;80.34;;
74292;Laerm;62687;55.738;37.516;2023-04-06T04:35:27;73.49;69.03;78.21;;
74292;Laerm;62687;55.738;37.516;2023-04-06T04:38:11;73.85;69.01;78.12;;
74292;Laerm;62687;55.738;37.516;2023-04-06T04:40:55;74.30;69.27;85.83;;
74292;Laerm;62687;55.738;37.516;2023-04-06T04:43:40;74.20;69.75;84.13;;
74292;Laerm;62687;55.738;37.516;2023-04-06T04:46:24;74.06;69.06;77.90;;
74292;Laerm;62687;55.738;37.516;2023-04-06T04:49:08;75.16;70.20;88.69;;
74292;Laerm;62687;55.738;37.516;2023-04-06T04:51:52;73.97;69.55;78.74;;
74292;Laerm;62687;55.738;37.516;2023-04-06T04:54:36;74.11;69.70;82.16;;
74292;Laerm;62687;55.738;37.516;2023-04-06T04:57:21;74.15;70.34;84.53;;
74292;Laerm;62687;55.738;37.516;2023-04-06T05:00:05;73.89;69.42;79.38;;
74292;Laerm;62687;55.738;37.516;2023-04-06T05:02:50;74.02;69.95;78.92;;
74292;Laerm;62687;55.738;37.516;2023-04-06T05:05:34;73.92;69.88;81.98;;
74292;Laerm;62687;55.738;37.516;2023-04-06T05:08:19;73.37;68.85;77.34;;
74292;Laerm;62687;55.738;37.516;2023-04-06T05:11:03;73.71;69.67;84.68;;
74292;Laerm;62687;55.738;37.516;2023-04-06T05:13:48;73.46;68.96;76.85;;
74292;Laerm;62687;55.738;37.516;2023-04-06T05:16:34;73.74;69.34;83.70;;
74292;Laerm;62687;55.738;37.516;2023-04-06T05:19:19;73.56;69.04;79.24;;
74292;Laerm;62687;55.738;37.516;2023-04-06T05:22:03;73.88;69.32;77.92;;
74292;Laerm;62687;55.738;37.516;2023-04-06T05:24:47;73.96;69.95;79.28;;
74292;Laerm;62687;55.738;37.516;2023-04-06T05:27:31;73.81;69.41;78.04;;
74292;Laerm;62687;55.738;37.516;2023-04-06T05:30:16;73.72;69.37;80.29;;
74292;Laerm;62687;55.738;37.516;2023-04-06T05:33:00;73.59;69.72;77.97;;
74292;Laerm;62687;55.738;37.516;2023-04-06T05:35:44;73.87;69.59;86.09;;
74292;Laerm;62687;55.738;37.516;2023-04-06T05:38:29;73.65;68.75;77.67;;
74292;Laerm;62687;55.738;37.516;2023-04-06T05:41:13;73.96;70.19;84.45;;
74292;Laerm;62687;55.738;37.516;2023-04-06T05:43:57;73.53;69.62;78.83;;
74292;Laerm;62687;55.738;37.516;2023-04-06T05:46:41;73.91;70.12;82.97;;
74292;Laerm;62687;55.738;37.516;2023-04-06T05:49:25;73.49;68.55;76.94;;
74292;Laerm;62687;55.738;37.516;2023-04-06T05:52:09;73.52;68.76;87.33;;
74292;Laerm;62687;55.738;37.516;2023-04-06T05:54:54;74.95;69.26;92.95;;
74292;Laerm;62687;55.738;37.516;2023-04-06T05:57:38;74.48;68.81;90.34;;
74292;Laerm;62687;55.738;37.516;2023-04-06T06:00:22;73.49;68.12;85.29;;
74292;Laerm;62687;55.738;37.516;2023-04-06T06:03:07;73.48;69.61;83.99;;
74292;Laerm;62687;55.738;37.516;2023-04-06T06:05:52;73.64;69.08;82.34;;
74292;Laerm;62687;55.738;37.516;2023-04-06T06:08:36;73.18;69.28;79.71;;
74292;Laerm;62687;55.738;37.516;2023-04-06T06:11:20;72.97;68.99;79.57;;
74292;Laerm;62687;55.738;37.516;2023-04-06T06:14:04;72.22;68.06;83.92;;
74292;Laerm;62687;55.738;37.516;2023-04-06T06:16:49;73.30;68.10;81.40;;
74292;Laerm;62687;55.738;37.516;2023-04-06T06:19:33;73.47;69.36;78.23;;
74292;Laerm;62687;55.738;37.516;2023-04-06T06:22:17;73.17;68.26;79.48;;
74292;Laerm;62687;55.738;37.516;2023-04-06T06:25:02;72.58;67.10;76.79;;
74292;Laerm;62687;55.738;37.516;2023-04-06T06:27:46;73.78;67.68;80.10;;
74292;Laerm;62687;55.738;37.516;2023-04-06T06:30:30;73.57;68.36;78.84;;
74292;Laerm;62687;55.738;37.516;2023-04-06T06:33:14;73.66;69.14;82.29;;
74292;Laerm;62687;55.738;37.516;2023-04-06T06:35:59;72.99;68.57;77.79;;
74292;Laerm;62687;55.738;37.516;2023-04-06T06:38:44;72.33;67.09;76.19;;
74292;Laerm;62687;55.738;37.516;2023-04-06T06:41:28;71.98;63.48;81.10;;
74292;Laerm;62687;55.738;37.516;2023-04-06T06:44:12;72.33;65.80;80.56;;
74292;Laerm;62687;55.738;37.516;2023-04-06T06:46:56;71.82;65.58;77.45;;
74292;Laerm;62687;55.738;37.516;2023-04-06T06:49:41;71.81;65.40;86.15;;
74292;Laerm;62687;55.738;37.516;2023-04-06T06:52:25;70.64;64.25;89.03;;
74292;Laerm;62687;55.738;37.516;2023-04-06T06:55:09;71.99;64.78;89.90;;
74292;Laerm;62687;55.738;37.516;2023-04-06T06:57:54;69.59;65.10;76.71;;
74292;Laerm;62687;55.738;37.516;2023-04-06T07:00:38;68.90;63.95;79.05;;
74292;Laerm;62687;55.738;37.516;2023-04-06T07:03:22;69.96;65.85;79.66;;
74292;Laerm;62687;55.738;37.516;2023-04-06T07:06:06;72.00;67.21;78.99;;
74292;Laerm;62687;55.738;37.516;2023-04-06T07:08:50;73.70;67.63;89.48;;
74292;Laerm;62687;55.738;37.516;2023-04-06T07:11:35;72.60;67.71;85.45;;
74292;Laerm;62687;55.738;37.516;2023-04-06T07:14:19;71.53;66.49;75.56;;
74292;Laerm;62687;55.738;37.516;2023-04-06T07:17:03;72.39;67.31;76.88;;
74292;Laerm;62687;55.738;37.516;2023-04-06T07:19:47;73.37;68.79;78.55;;
74292;Laerm;62687;55.738;37.516;2023-04-06T07:22:32;73.83;68.78;86.88;;
74292;Laerm;62687;55.738;37.516;2023-04-06T07:25:16;72.83;67.03;85.10;;
74292;Laerm;62687;55.738;37.516;2023-04-06T07:28:01;72.04;67.43;76.25;;
74292;Laerm;62687;55.738;37.516;2023-04-06T07:30:45;72.10;66.76;77.60;;
74292;Laerm;62687;55.738;37.516;2023-04-06T07:33:30;71.93;66.66;76.82;;
74292;Laerm;62687;55.738;37.516;2023-04-06T07:36:14;72.30;66.55;79.31;;
74292;Laerm;62687;55.738;37.516;2023-04-06T07:38:58;71.66;65.86;76.17;;
74292;Laerm;62687;55.738;37.516;2023-04-06T07:41:42;72.87;67.74;79.93;;
74292;Laerm;62687;55.738;37.516;2023-04-06T07:44:27;73.42;67.38;85.66;;
74292;Laerm;62687;55.738;37.516;2023-04-06T07:47:11;73.03;67.28;85.19;;
74292;Laerm;62687;55.738;37.516;2023-04-06T07:49:55;72.98;66.84;84.86;;
74292;Laerm;62687;55.738;37.516;2023-04-06T07:52:39;72.58;66.86;85.01;;
74292;Laerm;62687;55.738;37.516;2023-04-06T07:55:24;72.73;67.09;89.40;;
74292;Laerm;62687;55.738;37.516;2023-04-06T07:58:08;72.12;67.20;78.40;;
74292;Laerm;62687;55.738;37.516;2023-04-06T08:00:52;71.92;67.42;76.24;;
74292;Laerm;62687;55.738;37.516;2023-04-06T08:03:36;71.86;67.80;78.12;;
74292;Laerm;62687;55.738;37.516;2023-04-06T08:06:20;73.88;67.87;92.09;;
74292;Laerm;62687;55.738;37.516;2023-04-06T08:09:04;72.41;66.77;76.21;;
74292;Laerm;62687;55.738;37.516;2023-04-06T08:11:49;72.82;67.64;85.21;;
74292;Laerm;62687;55.738;37.516;2023-04-06T08:14:33;73.82;67.66;91.68;;
74292;Laerm;62687;55.738;37.516;2023-04-06T08:17:17;72.96;67.50;86.15;;
74292;Laerm;62687;55.738;37.516;2023-04-06T08:20:01;72.38;66.98;76.47;;
74292;Laerm;62687;55.738;37.516;2023-04-06T08:22:47;71.98;65.60;78.64;;
74292;Laerm;62687;55.738;37.516;2023-04-06T08:25:31;72.20;65.12;88.01;;
74292;Laerm;62687;55.738;37.516;2023-04-06T08:28:15;72.51;66.55;85.37;;
74292;Laerm;62687;55.738;37.516;2023-04-06T08:31:03;72.06;67.12;79.80;;
74292;Laerm;62687;55.738;37.516;2023-04-06T08:33:47;72.16;67.38;76.84;;
74292;Laerm;62687;55.738;37.516;2023-04-06T08:36:32;73.31;67.52;89.07;;
74292;Laerm;62687;55.738;37.516;2023-04-06T08:39:16;72.38;66.53;77.65;;
74292;Laerm;62687;55.738;37.516;2023-04-06T08:42:01;72.36;67.99;76.85;;
74292;Laerm;62687;55.738;37.516;2023-04-06T08:44:48;72.68;67.77;79.42;;
74292;Laerm;62687;55.738;37.516;2023-04-06T08:47:36;71.92;66.89;86.31;;
74292;Laerm;62687;55.738;37.516;2023-04-06T08:50:21;72.54;68.28;77.95;;
74292;Laerm;62687;55.738;37.516;2023-04-06T08:53:06;71.94;67.20;80.54;;
74292;Laerm;62687;55.738;37.516;2023-04-06T08:55:50;70.25;65.92;81.87;;
74292;Laerm;62687;55.738;37.516;2023-04-06T08:58:37;69.52;65.17;77.16;;
74292;Laerm;62687;55.738;37.516;2023-04-06T09:01:26;70.02;65.82;76.63;;
74292;Laerm;62687;55.738;37.516;2023-04-06T09:04:11;69.54;65.66;78.60;;
74292;Laerm;62687;55.738;37.516;2023-04-06T09:06:55;72.31;65.20;77.12;;
74292;Laerm;62687;55.738;37.516;2023-04-06T09:09:40;72.87;65.96;83.36;;
74292;Laerm;62687;55.738;37.516;2023-04-06T09:12:31;71.77;65.76;79.14;;
74292;Laerm;62687;55.738;37.516;2023-04-06T09:15:20;71.89;66.97;79.98;;
74292;Laerm;62687;55.738;37.516;2023-04-06T09:18:05;70.92;63.72;86.58;;
74292;Laerm;62687;55.738;37.516;2023-04-06T09:21:03;71.82;65.33;77.71;;
74292;Laerm;62687;55.738;37.516;2023-04-06T09:24:00;72.28;67.81;77.29;;
74292;Laerm;62687;55.738;37.516;2023-04-06T09:26:46;71.96;67.77;82.32;;
74292;Laerm;62687;55.738;37.516;2023-04-06T09:29:30;71.24;65.60;75.71;;
74292;Laerm;62687;55.738;37.516;2023-04-06T09:32:15;71.86;66.87;77.03;;
74292;Laerm;62687;55.738;37.516;2023-04-06T09:35:07;71.12;66.21;75.42;;
74292;Laerm;62687;55.738;37.516;2023-04-06T09:37:53;72.72;68.28;80.54;;
74292;Laerm;62687;55.738;37.516;2023-04-06T09:40:48;71.99;66.96;80.20;;
74292;Laerm;62687;55.738;37.516;2023-04-06T09:43:32;71.86;67.55;77.20;;
74292;Laerm;62687;55.738;37.516;2023-04-06T09:46:17;71.86;67.70;77.82;;
74292;Laerm;62687;55.738;37.516;2023-04-06T09:49:03;71.91;66.44;82.29;;
74292;Laerm;62687;55.738;37.516;2023-04-06T09:51:55;71.31;66.85;80.34;;
74292;Laerm;62687;55.738;37.516;2023-04-06T09:54:41;71.18;65.09;82.67;;
74292;Laerm;62687;55.738;37.516;2023-04-06T09:58:16;72.33;67.10;81.17;;
74292;Laerm;62687;55.738;37.516;2023-04-06T10:01:10;71.84;66.87;76.20;;
74292;Laerm;62687;55.738;37.516;2023-04-06T10:07:11;73.09;67.78;80.53;;
74292;Laerm;62687;55.738;37.516;2023-04-06T10:09:56;72.62;68.05;82.28;;
74292;Laerm;62687;55.738;37.516;2023-04-06T10:12:41;72.69;67.40;80.36;;
74292;Laerm;62687;55.738;37.516;2023-04-06T10:15:28;72.20;67.56;77.92;;
74292;Laerm;62687;55.738;37.516;2023-04-06T10:18:14;71.98;67.55;77.22;;
74292;Laerm;62687;55.738;37.516;2023-04-06T10:21:15;72.05;66.33;79.93;;
74292;Laerm;62687;55.738;37.516;2023-04-06T10:24:01;71.49;66.05;75.99;;
74292;Laerm;62687;55.738;37.516;2023-04-06T10:27:02;72.02;67.81;81.70;;
74292;Laerm;62687;55.738;37.516;2023-04-06T10:29:47;72.05;66.81;80.52;;
74292;Laerm;62687;55.738;37.516;2023-04-06T10:32:38;71.50;67.46;81.11;;
74292;Laerm;62687;55.738;37.516;2023-04-06T10:35:22;71.68;66.03;79.22;;
74292;Laerm;62687;55.738;37.516;2023-04-06T10:38:08;71.43;67.14;81.87;;
74292;Laerm;62687;55.738;37.516;2023-04-06T10:40:52;71.80;66.82;78.00;;
74292;Laerm;62687;55.738;37.516;2023-04-06T10:43:38;72.06;66.37;75.94;;
74292;Laerm;62687;55.738;37.516;2023-04-06T10:46:27;72.29;65.24;77.12;;
74292;Laerm;62687;55.738;37.516;2023-04-06T10:49:12;72.35;68.76;78.62;;
74292;Laerm;62687;55.738;37.516;2023-04-06T10:51:57;72.22;66.24;76.21;;
74292;Laerm;62687;55.738;37.516;2023-04-06T10:54:42;71.90;68.24;75.72;;
74292;Laerm;62687;55.738;37.516;2023-04-06T10:57:30;71.88;66.89;78.36;;
74292;Laerm;62687;55.738;37.516;2023-04-06T11:00:17;72.26;68.59;76.44;;
74292;Laerm;62687;55.738;37.516;2023-04-06T11:03:01;72.65;67.17;82.21;;
74292;Laerm;62687;55.738;37.516;2023-04-06T11:05:50;72.20;67.11;82.05;;
74292;Laerm;62687;55.738;37.516;2023-04-06T11:08:34;72.96;68.44;90.19;;
74292;Laerm;62687;55.738;37.516;2023-04-06T11:11:21;72.07;68.40;77.82;;
74292;Laerm;62687;55.738;37.516;2023-04-06T11:14:06;72.05;67.18;77.17;;
74292;Laerm;62687;55.738;37.516;2023-04-06T11:16:53;71.03;66.49;75.44;;
74292;Laerm;62687;55.738;37.516;2023-04-06T11:19:38;72.02;65.02;85.39;;
74292;Laerm;62687;55.738;37.516;2023-04-06T11:22:22;72.72;68.13;79.81;;
74292;Laerm;62687;55.738;37.516;2023-04-06T11:25:07;71.88;66.45;79.14;;
74292;Laerm;62687;55.738;37.516;2023-04-06T11:27:52;72.18;66.86;81.84;;
74292;Laerm;62687;55.738;37.516;2023-04-06T11:30:36;71.56;66.73;76.31;;
74292;Laerm;62687;55.738;37.516;2023-04-06T11:33:21;72.00;68.04;79.26;;
74292;Laerm;62687;55.738;37.516;2023-04-06T11:36:06;71.87;68.07;76.42;;
74292;Laerm;62687;55.738;37.516;2023-04-06T11:38:51;72.39;68.44;78.97;;
74292;Laerm;62687;55.738;37.516;2023-04-06T11:41:35;72.44;68.68;79.35;;
74292;Laerm;62687;55.738;37.516;2023-04-06T11:47:19;71.70;67.98;79.57;;
74292;Laerm;62687;55.738;37.516;2023-04-06T11:52:58;72.12;67.03;78.61;;
74292;Laerm;62687;55.738;37.516;2023-04-06T11:55:44;73.92;69.22;88.31;;
74292;Laerm;62687;55.738;37.516;2023-04-06T11:58:31;71.85;66.53;81.72;;
74292;Laerm;62687;55.738;37.516;2023-04-06T12:01:15;72.20;66.66;78.18;;
74292;Laerm;62687;55.738;37.516;2023-04-06T12:03:59;72.48;67.87;78.50;;
74292;Laerm;62687;55.738;37.516;2023-04-06T12:06:43;71.92;67.30;75.52;;
74292;Laerm;62687;55.738;37.516;2023-04-06T12:09:28;72.06;67.34;77.37;;
74292;Laerm;62687;55.738;37.516;2023-04-06T12:12:12;72.25;67.70;80.33;;
74292;Laerm;62687;55.738;37.516;2023-04-06T12:14:56;71.97;67.09;79.88;;
74292;Laerm;62687;55.738;37.516;2023-04-06T12:17:41;71.58;67.40;80.56;;
74292;Laerm;62687;55.738;37.516;2023-04-06T12:20:25;72.26;67.39;80.84;;
74292;Laerm;62687;55.738;37.516;2023-04-06T12:23:09;71.78;68.31;80.88;;
74292;Laerm;62687;55.738;37.516;2023-04-06T12:25:53;72.18;68.23;76.88;;
74292;Laerm;62687;55.738;37.516;2023-04-06T12:28:38;71.22;66.54;75.27;;
74292;Laerm;62687;55.738;37.516;2023-04-06T12:31:23;71.77;67.54;79.93;;
74292;Laerm;62687;55.738;37.516;2023-04-06T12:34:09;69.98;66.43;75.47;;
74292;Laerm;62687;55.738;37.516;2023-04-06T12:36:53;70.73;67.27;76.57;;
74292;Laerm;62687;55.738;37.516;2023-04-06T12:39:37;70.62;66.47;80.15;;
74292;Laerm;62687;55.738;37.516;2023-04-06T12:42:21;69.81;65.78;77.45;;
74292;Laerm;62687;55.738;37.516;2023-04-06T12:45:07;71.78;67.42;83.06;;
74292;Laerm;62687;55.738;37.516;2023-04-06T12:47:51;71.75;67.31;80.02;;
74292;Laerm;62687;55.738;37.516;2023-04-06T12:50:35;72.04;65.20;80.48;;
74292;Laerm;62687;55.738;37.516;2023-04-06T12:53:20;71.45;66.56;76.61;;
74292;Laerm;62687;55.738;37.516;2023-04-06T12:56:12;71.46;67.04;81.10;;
74292;Laerm;62687;55.738;37.516;2023-04-06T12:58:56;71.11;66.47;84.44;;
74292;Laerm;62687;55.738;37.516;2023-04-06T13:01:41;69.43;64.47;78.83;;
74292;Laerm;62687;55.738;37.516;2023-04-06T13:04:25;69.20;64.48;75.99;;
74292;Laerm;62687;55.738;37.516;2023-04-06T13:07:10;69.96;66.05;78.66;;
74292;Laerm;62687;55.738;37.516;2023-04-06T13:09:54;70.03;66.46;79.46;;
74292;Laerm;62687;55.738;37.516;2023-04-06T13:12:38;70.47;66.31;81.05;;
74292;Laerm;62687;55.738;37.516;2023-04-06T13:15:23;70.89;63.85;84.85;;
74292;Laerm;62687;55.738;37.516;2023-04-06T13:18:08;69.98;66.03;81.51;;
74292;Laerm;62687;55.738;37.516;2023-04-06T13:20:52;70.40;65.52;76.85;;
74292;Laerm;62687;55.738;37.516;2023-04-06T13:23:39;70.89;66.63;76.86;;
74292;Laerm;62687;55.738;37.516;2023-04-06T13:26:23;70.21;66.03;78.10;;
74292;Laerm;62687;55.738;37.516;2023-04-06T13:29:07;71.20;66.31;77.79;;
74292;Laerm;62687;55.738;37.516;2023-04-06T13:31:52;72.27;67.94;86.96;;
74292;Laerm;62687;55.738;37.516;2023-04-06T13:34:36;71.21;64.95;80.97;;
74292;Laerm;62687;55.738;37.516;2023-04-06T13:37:20;70.42;66.87;76.57;;
74292;Laerm;62687;55.738;37.516;2023-04-06T13:40:05;70.40;66.10;78.15;;
74292;Laerm;62687;55.738;37.516;2023-04-06T13:42:50;71.01;66.26;76.42;;
74292;Laerm;62687;55.738;37.516;2023-04-06T13:45:34;70.53;65.59;81.78;;
74292;Laerm;62687;55.738;37.516;2023-04-06T13:48:19;68.89;64.31;79.96;;
74292;Laerm;62687;55.738;37.516;2023-04-06T13:51:10;68.85;63.08;81.39;;
74292;Laerm;62687;55.738;37.516;2023-04-06T13:53:54;69.29;65.08;75.81;;
74292;Laerm;62687;55.738;37.516;2023-04-06T13:56:38;70.00;65.00;81.68;;
74292;Laerm;62687;55.738;37.516;2023-04-06T13:59:22;68.85;63.51;75.34;;
74292;Laerm;62687;55.738;37.516;2023-04-06T14:02:07;68.69;64.57;75.00;;
74292;Laerm;62687;55.738;37.516;2023-04-06T14:04:51;69.04;65.13;80.06;;
74292;Laerm;62687;55.738;37.516;2023-04-06T14:07:35;69.38;65.52;76.33;;
74292;Laerm;62687;55.738;37.516;2023-04-06T14:10:19;69.96;65.40;82.70;;
74292;Laerm;62687;55.738;37.516;2023-04-06T14:13:06;69.31;65.38;73.51;;
74292;Laerm;62687;55.738;37.516;2023-04-06T14:15:54;69.51;65.46;73.45;;
74292;Laerm;62687;55.738;37.516;2023-04-06T14:18:39;70.03;66.13;78.35;;
74292;Laerm;62687;55.738;37.516;2023-04-06T14:21:23;69.81;66.29;75.59;;
74292;Laerm;62687;55.738;37.516;2023-04-06T14:24:08;70.30;64.81;86.20;;
74292;Laerm;62687;55.738;37.516;2023-04-06T14:26:52;68.34;64.61;74.74;;
74292;Laerm;62687;55.738;37.516;2023-04-06T14:29:37;69.61;65.43;76.04;;
74292;Laerm;62687;55.738;37.516;2023-04-06T14:32:21;68.69;62.95;72.69;;
74292;Laerm;62687;55.738;37.516;2023-04-06T14:35:05;69.69;66.14;73.99;;
74292;Laerm;62687;55.738;37.516;2023-04-06T14:37:49;69.52;65.81;74.70;;
74292;Laerm;62687;55.738;37.516;2023-04-06T14:40:35;69.49;65.67;79.76;;
74292;Laerm;62687;55.738;37.516;2023-04-06T14:43:20;69.29;63.44;78.22;;
74292;Laerm;62687;55.738;37.516;2023-04-06T14:46:04;68.97;63.13;75.99;;
74292;Laerm;62687;55.738;37.516;2023-04-06T14:48:49;68.87;64.60;72.64;;
74292;Laerm;62687;55.738;37.516;2023-04-06T14:51:33;68.45;64.44;71.97;;
74292;Laerm;62687;55.738;37.516;2023-04-06T14:54:17;67.84;62.63;72.54;;
74292;Laerm;62687;55.738;37.516;2023-04-06T14:57:02;68.27;62.85;72.95;;
74292;Laerm;62687;55.738;37.516;2023-04-06T14:59:46;66.45;61.16;79.94;;
74292;Laerm;62687;55.738;37.516;2023-04-06T15:02:32;67.39;63.38;71.62;;
74292;Laerm;62687;55.738;37.516;2023-04-06T15:05:16;67.75;62.91;80.61;;
74292;Laerm;62687;55.738;37.516;2023-04-06T15:08:00;69.08;65.47;76.71;;
74292;Laerm;62687;55.738;37.516;2023-04-06T15:10:45;69.30;63.72;81.47;;
74292;Laerm;62687;55.738;37.516;2023-04-06T15:13:29;69.32;63.89;82.07;;
74292;Laerm;62687;55.738;37.516;2023-04-06T15:16:13;68.10;63.59;77.17;;
74292;Laerm;62687;55.738;37.516;2023-04-06T15:18:59;69.29;65.47;73.51;;